createdAt,value
2019-04-10T00:01:09.754Z,44.05
2019-04-10T00:03:43.773Z,44.13
2019-04-10T00:06:17.890Z,44.25
2019-04-10T00:08:49.219Z,44.22
2019-04-10T00:11:20.789Z,44.25
2019-04-10T00:13:53.180Z,44.07
2019-04-10T00:16:24.702Z,44.04
2019-04-10T00:18:56.252Z,44.21
2019-04-10T00:21:27.699Z,44.26
2019-04-10T00:23:59.671Z,44.27
2019-04-10T00:26:31.988Z,44.16
2019-04-10T00:29:03.657Z,44.06
2019-04-10T00:31:35.477Z,44.14
2019-04-10T00:34:07.375Z,44.24
2019-04-10T00:36:39.416Z,44.24
2019-04-10T00:39:10.604Z,44.18
2019-04-10T00:41:41.494Z,44.13
2019-04-10T00:44:15.304Z,44.13
2019-04-10T00:46:46.510Z,44.25
2019-04-10T00:49:18.060Z,44.16
2019-04-10T00:51:49.988Z,44.20
2019-04-10T00:54:21.753Z,44.07
2019-04-10T00:56:53.338Z,44.06
2019-04-10T00:59:24.815Z,44.22
2019-04-10T01:01:56.361Z,44.35
2019-04-10T01:04:29.064Z,44.20
2019-04-10T01:07:00.887Z,44.07
2019-04-10T01:09:33.205Z,44.02
2019-04-10T01:12:05.691Z,44.17
2019-04-10T01:14:38.225Z,44.22
2019-04-10T01:17:09.657Z,44.25
2019-04-10T01:19:41.877Z,44.13
2019-04-10T01:22:14.926Z,44.03
2019-04-10T01:24:46.076Z,44.16
2019-04-10T01:27:17.998Z,44.27
2019-04-10T01:29:49.587Z,44.25
2019-04-10T01:32:21.436Z,44.24
2019-04-10T01:34:53.910Z,44.07
2019-04-10T01:37:25.289Z,43.98
2019-04-10T01:39:57.022Z,44.11
2019-04-10T01:42:28.589Z,44.20
2019-04-10T01:45:01.497Z,44.22
2019-04-10T01:47:33.313Z,44.11
2019-04-10T01:50:06.363Z,44.02
2019-04-10T01:52:37.747Z,44.01
2019-04-10T01:55:20.050Z,44.17
2019-04-10T01:57:44.186Z,44.12
2019-04-10T02:00:17.531Z,44.16
2019-04-10T02:02:51.798Z,44.03
2019-04-10T02:05:23.135Z,43.99
2019-04-10T02:08:03.264Z,44.13
2019-04-10T02:10:29.793Z,44.17
2019-04-10T02:13:01.557Z,44.14
2019-04-10T02:15:32.787Z,44.05
2019-04-10T02:18:05.338Z,43.98
2019-04-10T02:20:38.891Z,44.10
2019-04-10T02:23:10.206Z,44.17
2019-04-10T02:25:41.847Z,44.17
2019-04-10T02:28:13.528Z,44.08
2019-04-10T02:30:46.010Z,43.99
2019-04-10T02:33:17.900Z,44.01
2019-04-10T02:35:49.219Z,44.12
2019-04-10T02:38:37.416Z,44.15
2019-04-10T02:40:55.527Z,44.14
2019-04-10T02:43:27.385Z,44.02
2019-04-10T02:46:00.042Z,43.96
2019-04-10T02:48:32.120Z,44.09
2019-04-10T02:51:05.494Z,44.16
2019-04-10T02:53:39.337Z,44.12
2019-04-10T02:56:11.805Z,44.08
2019-04-10T02:58:44.440Z,44.10
2019-04-10T03:01:17.395Z,44.10
2019-04-10T03:03:50.131Z,44.09
2019-04-10T03:06:22.819Z,44.06
2019-04-10T03:09:07.574Z,44.14
2019-04-10T03:11:27.981Z,44.08
2019-04-10T03:14:01.374Z,44.15
2019-04-10T03:16:32.894Z,44.00
2019-04-10T03:19:05.406Z,44.08
2019-04-10T03:21:36.013Z,44.17
2019-04-10T03:24:07.257Z,44.26
2019-04-10T03:26:39.487Z,44.12
2019-04-10T03:29:11.612Z,44.09
2019-04-10T03:31:45.051Z,44.17
2019-04-10T03:34:20.805Z,44.21
2019-04-10T03:36:51.770Z,44.15
2019-04-10T03:39:24.451Z,44.03
2019-04-10T03:41:56.791Z,44.13
2019-04-10T03:44:28.102Z,44.21
2019-04-10T03:47:00.720Z,44.20
2019-04-10T03:49:32.216Z,44.12
2019-04-10T03:52:03.344Z,43.99
2019-04-10T03:54:34.994Z,44.11
2019-04-10T03:57:07.469Z,44.29
2019-04-10T03:59:40.719Z,44.21
2019-04-10T04:02:15.614Z,44.11
2019-04-10T04:04:47.975Z,44.00
2019-04-10T04:07:19.722Z,44.09
2019-04-10T04:09:51.553Z,44.20
2019-04-10T04:12:22.901Z,44.18
2019-04-10T04:14:56.922Z,44.04
2019-04-10T04:17:28.704Z,43.97
2019-04-10T04:20:00.050Z,44.05
2019-04-10T04:22:32.674Z,44.15
2019-04-10T04:25:04.682Z,44.11
2019-04-10T04:27:36.347Z,44.00
2019-04-10T04:30:08.440Z,43.89
2019-04-10T04:32:40.085Z,43.97
2019-04-10T04:35:11.264Z,44.12
2019-04-10T04:37:42.673Z,44.08
2019-04-10T04:40:14.239Z,43.91
2019-04-10T04:42:45.874Z,43.84
2019-04-10T04:45:17.530Z,43.95
2019-04-10T04:47:50.316Z,43.93
2019-04-10T04:50:21.975Z,43.88
2019-04-10T04:52:53.640Z,43.78
2019-04-10T04:55:26.069Z,43.79
2019-04-10T04:57:57.780Z,43.97
2019-04-10T05:00:32.285Z,43.94
2019-04-10T05:03:06.348Z,43.82
2019-04-10T05:05:39.046Z,43.69
2019-04-10T05:08:10.630Z,43.84
2019-04-10T05:10:42.074Z,43.84
2019-04-10T05:13:14.175Z,43.87
2019-04-10T05:15:45.716Z,43.74
2019-04-10T05:18:17.339Z,43.63
2019-04-10T05:20:50.817Z,43.63
2019-04-10T05:23:22.864Z,43.73
2019-04-10T05:25:54.562Z,43.77
2019-04-10T05:28:26.357Z,43.63
2019-04-10T05:30:57.364Z,43.52
2019-04-10T05:33:28.855Z,43.51
2019-04-10T05:36:01.247Z,43.79
2019-04-10T05:38:31.712Z,43.99
2019-04-10T05:41:02.287Z,43.86
2019-04-10T05:43:34.196Z,43.77
2019-04-10T05:46:04.979Z,43.65
2019-04-10T05:48:35.638Z,43.56
2019-04-10T05:51:07.907Z,43.96
2019-04-10T05:53:38.524Z,44.55
2019-04-10T05:56:09.864Z,44.87
2019-04-10T05:58:40.864Z,45.00
2019-04-10T06:01:11.562Z,46.06
2019-04-10T06:03:42.853Z,45.59
2019-04-10T06:06:14.463Z,45.23
2019-04-10T06:08:44.984Z,45.02
2019-04-10T06:11:17.021Z,44.73
2019-04-10T06:13:48.561Z,44.46
2019-04-10T06:16:19.547Z,44.15
2019-04-10T06:18:51.851Z,44.00
2019-04-10T06:21:23.111Z,44.08
2019-04-10T06:23:53.908Z,44.27
2019-04-10T06:26:25.775Z,44.21
2019-04-10T06:28:57.178Z,44.68
2019-04-10T06:31:28.507Z,44.43
2019-04-10T06:33:59.034Z,44.40
2019-04-10T06:36:29.653Z,44.58
2019-04-10T06:39:00.941Z,44.38
2019-04-10T06:41:33.166Z,44.95
2019-04-10T06:44:05.652Z,44.96
2019-04-10T06:46:37.944Z,45.01
2019-04-10T06:49:09.357Z,45.17
2019-04-10T06:51:41.048Z,45.13
2019-04-10T06:54:14.403Z,45.39
2019-04-10T06:56:45.928Z,45.34
2019-04-10T06:59:17.360Z,45.49
2019-04-10T07:01:52.849Z,45.34
2019-04-10T07:04:23.864Z,45.44
2019-04-10T07:07:00.823Z,45.92
2019-04-10T07:09:26.982Z,46.34
2019-04-10T07:12:03.391Z,46.70
2019-04-10T07:14:36.903Z,48.10
2019-04-10T07:17:07.506Z,47.42
2019-04-10T07:19:41.423Z,48.03
2019-04-10T07:22:14.257Z,48.34
2019-04-10T07:24:43.997Z,49.73
2019-04-10T07:27:14.531Z,49.04
2019-04-10T07:29:45.273Z,48.51
2019-04-10T07:32:17.900Z,48.13
2019-04-10T07:34:48.894Z,47.79
2019-04-10T07:37:21.654Z,47.44
2019-04-10T07:39:53.002Z,46.99
2019-04-10T07:42:30.439Z,47.11
2019-04-10T07:44:56.412Z,47.26
2019-04-10T07:47:29.474Z,47.18
2019-04-10T07:50:01.597Z,47.37
2019-04-10T07:52:32.926Z,47.40
2019-04-10T07:55:04.543Z,47.76
2019-04-10T07:57:36.695Z,48.07
2019-04-10T08:00:09.015Z,48.74
2019-04-10T08:02:40.534Z,48.77
2019-04-10T08:05:10.863Z,48.63
2019-04-10T08:07:41.172Z,48.82
2019-04-10T08:10:12.762Z,48.15
2019-04-10T08:12:50.928Z,47.84
2019-04-10T08:15:21.290Z,48.17
2019-04-10T08:17:56.058Z,48.27
2019-04-10T08:20:26.208Z,48.33
2019-04-10T08:22:57.356Z,49.18
2019-04-10T08:25:28.838Z,48.35
2019-04-10T08:28:00.708Z,48.49
2019-04-10T08:30:32.138Z,48.71
2019-04-10T08:33:03.213Z,48.43
2019-04-10T08:35:37.718Z,47.97
2019-04-10T08:38:07.696Z,49.06
2019-04-10T08:40:38.409Z,47.44
2019-04-10T08:43:10.200Z,47.78
2019-04-10T08:45:48.073Z,48.22
2019-04-10T08:48:15.470Z,49.07
2019-04-10T08:50:46.130Z,48.25
2019-04-10T08:53:18.826Z,48.25
2019-04-10T08:55:49.072Z,49.00
2019-04-10T08:58:20.893Z,48.53
2019-04-10T09:00:53.029Z,48.64
2019-04-10T09:03:24.718Z,48.48
2019-04-10T09:05:55.800Z,48.33
2019-04-10T09:08:26.658Z,48.59
2019-04-10T09:10:57.224Z,48.91
2019-04-10T09:13:28.510Z,48.59
2019-04-10T09:16:00.326Z,48.18
2019-04-10T09:18:31.553Z,48.30
2019-04-10T09:21:02.784Z,48.80
2019-04-10T09:23:42.849Z,49.76
2019-04-10T09:26:05.915Z,49.97
2019-04-10T09:28:38.340Z,49.57
2019-04-10T09:31:09.334Z,49.08
2019-04-10T09:33:39.802Z,50.25
2019-04-10T09:36:11.164Z,48.33
2019-04-10T09:38:41.546Z,48.72
2019-04-10T09:41:13.986Z,48.67
2019-04-10T09:43:45.512Z,48.61
2019-04-10T09:46:18.504Z,48.47
2019-04-10T09:55:03.320Z,47.66
2019-04-10T10:07:49.017Z,47.31
2019-04-10T10:10:20.766Z,46.82
2019-04-10T10:12:52.681Z,47.93
2019-04-10T10:15:25.177Z,48.19
2019-04-10T10:17:57.113Z,48.26
2019-04-10T10:20:30.701Z,48.31
2019-04-10T10:23:01.300Z,48.56
2019-04-10T10:25:32.652Z,48.57
2019-04-10T10:28:04.966Z,48.35
2019-04-10T10:30:36.200Z,48.49
2019-04-10T10:33:07.927Z,48.47
2019-04-10T10:35:39.100Z,48.44
2019-04-10T10:38:10.805Z,48.38
2019-04-10T10:40:43.590Z,48.29
2019-04-10T10:43:14.754Z,48.16
2019-04-10T10:45:47.091Z,48.13
2019-04-10T10:48:21.746Z,48.16
2019-04-10T10:50:53.383Z,48.07
2019-04-10T10:53:26.215Z,47.98
2019-04-10T10:55:58.055Z,47.93
2019-04-10T10:58:30.018Z,47.85
2019-04-10T11:01:01.473Z,47.85
2019-04-10T11:03:34.203Z,47.91
2019-04-10T11:06:06.626Z,47.85
2019-04-10T11:08:39.719Z,47.83
2019-04-10T11:11:12.693Z,47.76
2019-04-10T11:13:45.066Z,47.72
2019-04-10T11:16:17.081Z,47.60
2019-04-10T11:18:50.804Z,47.62
2019-04-10T11:21:24.774Z,47.54
2019-04-10T11:23:56.192Z,47.38
2019-04-10T11:26:27.640Z,47.27
2019-04-10T11:29:01.515Z,47.15
2019-04-10T11:31:31.679Z,47.25
2019-04-10T11:34:04.182Z,47.10
2019-04-10T11:36:36.191Z,47.13
2019-04-10T11:41:41.363Z,47.02
2019-04-10T11:44:16.584Z,46.80
2019-04-10T11:46:46.737Z,46.66
2019-04-10T11:49:20.219Z,46.63
2019-04-10T11:51:59.598Z,46.47
2019-04-10T11:54:31.687Z,46.62
2019-04-10T11:57:07.119Z,46.53
2019-04-10T11:59:45.601Z,46.45
2019-04-10T12:02:20.458Z,46.42
2019-04-10T12:04:55.804Z,46.40
2019-04-10T12:07:54.928Z,46.31
2019-04-10T12:12:46.603Z,46.34
2019-04-10T12:15:22.660Z,46.21
2019-04-10T12:18:00.371Z,46.13
2019-04-10T12:20:33.754Z,46.10
2019-04-10T12:23:08.441Z,46.13
2019-04-10T14:18:50.910Z,50.67
2019-04-10T14:21:22.021Z,51.49
2019-04-10T14:23:58.320Z,52.00
2019-04-10T14:26:43.724Z,52.18
2019-04-10T14:29:10.171Z,53.42
2019-04-10T14:31:44.647Z,53.27
2019-04-10T14:34:18.870Z,52.74
2019-04-10T14:36:52.886Z,52.05
2019-04-10T14:39:27.311Z,52.64
2019-04-10T14:42:00.156Z,53.29
2019-04-10T14:44:32.621Z,52.47
2019-04-10T14:47:04.399Z,51.97
2019-04-10T14:49:37.553Z,51.71
2019-04-10T14:52:08.829Z,52.14
2019-04-10T14:54:40.925Z,52.15
2019-04-10T14:57:12.839Z,52.21
2019-04-10T14:59:44.622Z,52.19
2019-04-10T15:02:16.749Z,52.78
2019-04-10T15:04:49.075Z,53.87
2019-04-10T15:07:21.833Z,54.06
2019-04-10T15:09:55.322Z,54.20
2019-04-10T15:12:28.081Z,55.16
2019-04-10T15:15:03.851Z,55.17
2019-04-10T15:17:38.417Z,55.48
2019-04-10T15:20:11.157Z,56.07
2019-04-10T15:22:44.411Z,56.55
2019-04-10T15:25:17.277Z,56.94
2019-04-10T15:27:50.028Z,57.25
2019-04-10T15:30:22.289Z,57.65
2019-04-10T15:32:54.209Z,57.27
2019-04-10T15:35:26.515Z,58.03
2019-04-10T15:37:59.839Z,58.00
2019-04-10T15:40:34.553Z,58.09
2019-04-10T15:43:06.650Z,58.21
2019-04-10T15:45:38.319Z,58.10
2019-04-10T15:48:10.639Z,58.37
2019-04-10T15:50:43.386Z,58.55
2019-04-10T15:53:15.950Z,58.65
2019-04-10T15:55:47.695Z,59.17
2019-04-10T15:58:21.506Z,58.84
2019-04-10T16:00:53.865Z,58.66
2019-04-10T16:03:26.180Z,59.08
2019-04-10T16:05:57.738Z,59.24
2019-04-10T16:08:29.876Z,59.51
2019-04-10T16:11:07.669Z,60.01
2019-04-10T16:13:41.265Z,60.33
2019-04-10T16:16:30.584Z,60.93
2019-04-10T16:19:04.279Z,61.86
2019-04-10T16:21:36.834Z,62.57
2019-04-10T16:24:12.088Z,63.20
2019-04-10T16:26:44.233Z,63.87
2019-04-10T16:29:18.177Z,64.32
2019-04-10T16:31:53.116Z,64.99
2019-04-10T16:34:36.142Z,65.63
2019-04-10T16:37:12.599Z,65.82
2019-04-10T16:39:57.457Z,66.28
2019-04-10T16:42:20.206Z,66.88
2019-04-10T16:44:53.385Z,67.43
2019-04-10T16:47:32.302Z,67.54
2019-04-10T16:50:11.170Z,67.58
2019-04-10T16:52:43.872Z,67.81
2019-04-10T16:55:16.443Z,67.71
2019-04-10T16:57:49.238Z,67.91
2019-04-10T17:00:22.247Z,67.79
2019-04-10T17:02:54.510Z,67.32
2019-04-10T17:05:26.328Z,66.77
2019-04-10T17:07:59.415Z,66.49
2019-04-10T17:10:30.954Z,65.20
2019-04-10T17:13:07.247Z,64.62
2019-04-10T17:15:39.823Z,63.85
2019-04-10T17:18:11.821Z,64.09
2019-04-10T17:20:44.599Z,63.26
2019-04-10T17:23:16.481Z,63.04
2019-04-10T17:25:53.372Z,62.02
2019-04-10T17:28:28.434Z,62.17
2019-04-10T17:31:04.889Z,61.70
2019-04-10T17:33:41.920Z,61.51
2019-04-10T17:36:13.584Z,60.85
2019-04-10T17:38:45.220Z,60.79
2019-04-10T17:41:17.805Z,60.80
2019-04-10T17:43:50.171Z,60.94
2019-04-10T17:46:27.051Z,60.06
2019-04-10T17:48:59.003Z,60.57
2019-04-10T17:51:32.729Z,60.35
2019-04-10T17:54:09.608Z,60.01
2019-04-10T17:56:46.570Z,59.70
2019-04-10T17:59:18.416Z,59.14
2019-04-10T18:01:51.515Z,59.44
2019-04-10T18:04:26.221Z,59.32
2019-04-10T18:07:01.208Z,58.85
2019-04-10T18:09:33.137Z,58.49
2019-04-10T18:12:08.017Z,58.83
2019-04-10T18:14:42.602Z,58.60
2019-04-10T18:17:18.590Z,58.08
2019-04-10T18:19:52.478Z,58.34
2019-04-10T18:22:24.737Z,58.12
2019-04-10T18:24:58.357Z,57.28
2019-04-10T18:27:30.419Z,56.99
2019-04-10T18:30:06.148Z,56.08
2019-04-10T18:32:43.611Z,56.24
2019-04-10T18:35:22.542Z,56.20
2019-04-10T18:38:03.515Z,56.18
2019-04-10T18:40:52.140Z,55.85
2019-04-10T18:43:16.048Z,56.01
2019-04-10T18:45:57.487Z,55.61
2019-04-10T18:48:28.217Z,55.39
2019-04-10T18:51:10.860Z,55.42
2019-04-10T18:53:46.280Z,55.12
2019-04-10T18:56:21.523Z,54.99
2019-04-10T18:59:02.683Z,55.11
2019-04-10T19:01:47.356Z,53.47
2019-04-10T19:04:24.450Z,54.02
2019-04-10T19:07:02.794Z,54.80
2019-04-10T19:09:39.055Z,54.06
2019-04-10T19:12:12.803Z,53.87
2019-04-10T19:14:44.820Z,54.10
2019-04-10T19:17:20.831Z,53.75
2019-04-10T19:19:52.674Z,54.13
2019-04-10T19:22:24.413Z,54.81
2019-04-10T19:25:02.962Z,54.19
2019-04-10T19:27:38.582Z,54.51
2019-04-10T19:30:33.813Z,54.91
2019-04-10T19:33:06.562Z,55.10
2019-04-10T19:35:39.263Z,54.89
2019-04-10T19:38:13.506Z,54.61
2019-04-10T19:40:45.894Z,54.19
2019-04-10T19:43:19.121Z,54.41
2019-04-10T19:45:52.299Z,55.29
2019-04-10T19:48:25.485Z,54.72
2019-04-10T19:51:01.327Z,54.34
2019-04-10T19:53:35.310Z,54.79
2019-04-10T19:56:06.632Z,54.22
2019-04-10T19:58:38.506Z,54.65
2019-04-10T20:01:11.461Z,54.91
2019-04-10T20:03:45.943Z,54.45
2019-04-10T20:06:18.453Z,53.97
2019-04-10T20:08:52.780Z,55.54
2019-04-10T20:11:35.659Z,55.79
2019-04-10T20:14:00.054Z,55.80
2019-04-10T20:16:35.361Z,54.84
2019-04-10T20:19:07.528Z,54.51
2019-04-10T20:21:39.749Z,54.25
2019-04-10T20:24:12.362Z,54.08
2019-04-10T20:26:43.526Z,53.20
2019-04-10T20:29:15.190Z,53.55
2019-04-10T20:31:47.817Z,52.95
2019-04-10T20:34:19.469Z,53.14
2019-04-10T20:36:51.186Z,53.35
2019-04-10T20:39:25.283Z,52.69
2019-04-10T20:41:59.332Z,52.16
2019-04-10T20:44:30.294Z,52.85
2019-04-10T20:47:02.533Z,52.03
2019-04-10T20:49:35.015Z,52.17
2019-04-10T20:52:08.278Z,51.58
2019-04-10T20:54:39.563Z,50.97
2019-04-10T20:57:13.016Z,51.36
2019-04-10T20:59:44.678Z,51.03
2019-04-10T21:02:18.821Z,50.10
2019-04-10T21:04:56.614Z,49.87
2019-04-10T21:07:25.971Z,49.92
2019-04-10T21:09:57.022Z,50.40
2019-04-10T21:12:30.118Z,50.60
2019-04-10T21:15:01.490Z,49.86
2019-04-10T21:17:34.091Z,50.44
2019-04-10T21:20:07.854Z,50.43
2019-04-10T21:22:39.080Z,50.43
2019-04-10T21:25:11.430Z,50.01
2019-04-10T21:27:44.103Z,50.91
2019-04-10T21:30:32.660Z,50.94
2019-04-10T21:33:05.928Z,50.88
2019-04-10T21:35:43.746Z,51.68
2019-04-10T21:38:15.251Z,51.94
2019-04-10T21:40:47.454Z,54.32
2019-04-10T21:43:20.297Z,56.09
2019-04-10T21:45:52.091Z,57.68
2019-04-10T21:48:24.586Z,58.60
2019-04-10T21:50:55.281Z,59.58
2019-04-10T21:53:26.548Z,60.25
2019-04-10T21:55:57.775Z,60.01
2019-04-10T21:58:30.426Z,58.22
2019-04-10T22:01:03.522Z,59.69
2019-04-10T22:03:36.346Z,59.84
2019-04-10T22:06:23.950Z,59.41
2019-04-10T22:09:04.109Z,59.28
2019-04-10T22:11:37.221Z,58.69
2019-04-10T22:14:08.862Z,57.59
2019-04-10T22:16:40.203Z,57.26
2019-04-10T22:19:12.216Z,56.38
2019-04-10T22:21:44.048Z,56.28
2019-04-10T22:24:15.843Z,56.12
2019-04-10T22:26:47.485Z,55.46
2019-04-10T22:29:19.568Z,55.91
2019-04-10T22:31:51.337Z,55.83
2019-04-10T22:34:22.729Z,55.96
2019-04-10T22:36:53.869Z,56.23
2019-04-10T22:39:25.663Z,56.21
2019-04-10T22:41:57.074Z,56.55
2019-04-10T22:44:36.646Z,56.42
2019-04-10T22:47:03.006Z,57.00
2019-04-10T22:49:34.968Z,56.94
2019-04-10T22:52:06.822Z,57.40
2019-04-10T22:54:38.826Z,58.10
2019-04-10T22:57:10.496Z,58.14
2019-04-10T22:59:42.573Z,58.34
2019-04-10T23:02:15.041Z,58.38
2019-04-10T23:04:47.512Z,58.68
2019-04-10T23:07:19.873Z,58.91
2019-04-10T23:09:54.834Z,58.73
2019-04-10T23:12:26.534Z,58.54
2019-04-10T23:14:58.739Z,57.72
2019-04-10T23:17:30.081Z,57.37
2019-04-10T23:20:02.762Z,57.84
2019-04-10T23:22:33.883Z,57.68
2019-04-10T23:25:07.873Z,57.35
2019-04-10T23:27:38.868Z,57.74
2019-04-10T23:30:12.857Z,57.58
2019-04-10T23:32:44.310Z,57.68
2019-04-10T23:35:15.357Z,57.29
2019-04-10T23:37:46.984Z,57.39
2019-04-10T23:40:18.896Z,57.43
2019-04-10T23:43:02.649Z,57.25
2019-04-10T23:45:23.868Z,57.56
2019-04-10T23:47:56.176Z,56.79
2019-04-10T23:50:28.117Z,57.03
2019-04-10T23:53:00.324Z,57.22
2019-04-10T23:55:32.257Z,57.28
2019-04-10T23:58:03.321Z,56.92
